TVF05BD LFMN-LFPO
Flight info
| Callsign | TVF05BD |
|---|---|
| Flight time | 1h 9m |
| Altitude | 34000 |
| Route | BADOD DCT NEDRU DCT LTP DCT BULOL DCT IDAVO DCT ARDOL |
| Aircraft | A20N/M-SDE2E3FGHIRWXY/LB1 |
Departure
| Time | 2026-05-04 15:49 |
|---|---|
| Airport | Nice-Côte d'Azur Airport (LFMN) |
Arrival
| Time | 2026-05-04 16:59 |
|---|---|
| Airport | Paris-Orly Airport (LFPO) |
| Time | Latitude | Longitude | Altitude | Speed | Heading |
|---|---|---|---|---|---|
| 2026-05-04 15:32 | 43.66080 | 7.20705 | 28 ft | 0 kts | 261° |
| 2026-05-04 15:38 | 43.66082 | 7.20720 | 29 ft | 2 kts | 260° |
| 2026-05-04 15:38 | 43.66084 | 7.20740 | 29 ft | 2 kts | 261° |
| 2026-05-04 15:38 | 43.66086 | 7.20754 | 29 ft | 0 kts | 261° |
| 2026-05-04 15:39 | 43.66090 | 7.20773 | 29 ft | 2 kts | 235° |
| 2026-05-04 15:39 | 43.66100 | 7.20788 | 29 ft | 2 kts | 211° |
| 2026-05-04 15:39 | 43.66124 | 7.20796 | 29 ft | 1 kts | 171° |
| 2026-05-04 15:40 | 43.66130 | 7.20794 | 29 ft | 0 kts | 169° |
| 2026-05-04 15:40 | 43.66136 | 7.20792 | 29 ft | 0 kts | 169° |
| 2026-05-04 15:40 | 43.66141 | 7.20791 | 29 ft | 0 kts | 169° |
| 2026-05-04 15:40 | 43.66146 | 7.20789 | 29 ft | 0 kts | 169° |
| 2026-05-04 15:43 | 43.66133 | 7.20793 | 28 ft | 4 kts | 168° |
| 2026-05-04 15:43 | 43.66085 | 7.20804 | 28 ft | 9 kts | 170° |
| 2026-05-04 15:43 | 43.66007 | 7.20822 | 28 ft | 12 kts | 169° |
| 2026-05-04 15:43 | 43.65926 | 7.20840 | 28 ft | 11 kts | 172° |
| 2026-05-04 15:44 | 43.65850 | 7.20856 | 28 ft | 10 kts | 169° |
| 2026-05-04 15:44 | 43.65759 | 7.20878 | 28 ft | 15 kts | 169° |
| 2026-05-04 15:44 | 43.65657 | 7.20901 | 28 ft | 14 kts | 171° |
| 2026-05-04 15:44 | 43.65551 | 7.20922 | 28 ft | 15 kts | 171° |
| 2026-05-04 15:45 | 43.65447 | 7.20948 | 28 ft | 16 kts | 170° |
| 2026-05-04 15:45 | 43.65327 | 7.20927 | 28 ft | 19 kts | 221° |
| 2026-05-04 15:45 | 43.65219 | 7.20778 | 28 ft | 23 kts | 225° |
| 2026-05-04 15:45 | 43.65099 | 7.20613 | 28 ft | 25 kts | 224° |
| 2026-05-04 15:46 | 43.64969 | 7.20434 | 28 ft | 25 kts | 225° |
| 2026-05-04 15:46 | 43.64856 | 7.20280 | 28 ft | 20 kts | 224° |
| 2026-05-04 15:46 | 43.64751 | 7.20191 | 28 ft | 14 kts | 167° |
| 2026-05-04 15:46 | 43.64693 | 7.20258 | 28 ft | 10 kts | 101° |
| 2026-05-04 15:47 | 43.64713 | 7.20306 | 28 ft | 0 kts | 44° |
| 2026-05-04 15:48 | 43.64715 | 7.20309 | 28 ft | 2 kts | 44° |
| 2026-05-04 15:48 | 43.65384 | 7.21226 | 28 ft | 134 kts | 45° |
| 2026-05-04 15:49 | 43.66148 | 7.22240 | 394 ft | 156 kts | 50° |
| 2026-05-04 15:49 | 43.66753 | 7.23400 | 1025 ft | 154 kts | 80° |
| 2026-05-04 15:49 | 43.66543 | 7.24801 | 1665 ft | 158 kts | 127° |
| 2026-05-04 15:49 | 43.65743 | 7.25908 | 2160 ft | 171 kts | 135° |
| 2026-05-04 15:50 | 43.64836 | 7.27065 | 2625 ft | 186 kts | 135° |
| 2026-05-04 15:50 | 43.63872 | 7.28357 | 3088 ft | 202 kts | 133° |
| 2026-05-04 15:50 | 43.62866 | 7.29799 | 3542 ft | 220 kts | 131° |
| 2026-05-04 15:50 | 43.61729 | 7.31233 | 4312 ft | 226 kts | 150° |
| 2026-05-04 15:51 | 43.60210 | 7.31653 | 5229 ft | 229 kts | 186° |
| 2026-05-04 15:51 | 43.58736 | 7.30903 | 6130 ft | 232 kts | 207° |
| 2026-05-04 15:51 | 43.57357 | 7.29745 | 6915 ft | 238 kts | 210° |
| 2026-05-04 15:51 | 43.56057 | 7.28331 | 7631 ft | 249 kts | 230° |
| 2026-05-04 15:52 | 43.55410 | 7.26022 | 8134 ft | 273 kts | 266° |
| 2026-05-04 15:52 | 43.55835 | 7.23438 | 8670 ft | 292 kts | 300° |
| 2026-05-04 15:52 | 43.57232 | 7.21399 | 9458 ft | 299 kts | 324° |
| 2026-05-04 15:52 | 43.58989 | 7.19839 | 10311 ft | 304 kts | 327° |
| 2026-05-04 15:53 | 43.60796 | 7.18282 | 10894 ft | 317 kts | 326° |
| 2026-05-04 15:53 | 43.62685 | 7.16528 | 11333 ft | 335 kts | 323° |
| 2026-05-04 15:53 | 43.64627 | 7.14603 | 11723 ft | 353 kts | 322° |
| 2026-05-04 15:53 | 43.66645 | 7.12521 | 12182 ft | 368 kts | 321° |
| 2026-05-04 15:54 | 43.68680 | 7.10374 | 12913 ft | 372 kts | 320° |
| 2026-05-04 15:54 | 43.70731 | 7.08188 | 13706 ft | 375 kts | 320° |
| 2026-05-04 15:54 | 43.72766 | 7.06002 | 14453 ft | 378 kts | 320° |
| 2026-05-04 15:54 | 43.74841 | 7.03763 | 15143 ft | 382 kts | 319° |
| 2026-05-04 15:55 | 43.76239 | 7.02253 | 15614 ft | 385 kts | 319° |
| 2026-05-04 15:55 | 43.78142 | 7.00191 | 16231 ft | 388 kts | 319° |
| 2026-05-04 15:55 | 43.80280 | 6.97872 | 16911 ft | 392 kts | 319° |
| 2026-05-04 15:56 | 43.82409 | 6.95561 | 17575 ft | 395 kts | 319° |
| 2026-05-04 15:56 | 43.84578 | 6.93206 | 18237 ft | 398 kts | 319° |
| 2026-05-04 15:56 | 43.86770 | 6.90826 | 18873 ft | 402 kts | 319° |
| 2026-05-04 15:56 | 43.88956 | 6.88448 | 19495 ft | 405 kts | 319° |
| 2026-05-04 15:57 | 43.91179 | 6.86027 | 20121 ft | 409 kts | 319° |
| 2026-05-04 15:57 | 43.93416 | 6.83588 | 20731 ft | 412 kts | 319° |
| 2026-05-04 15:57 | 43.95654 | 6.81148 | 21303 ft | 416 kts | 319° |
| 2026-05-04 15:57 | 43.97946 | 6.78641 | 21879 ft | 419 kts | 319° |
| 2026-05-04 15:58 | 44.00222 | 6.76151 | 22450 ft | 422 kts | 319° |
| 2026-05-04 15:58 | 44.02557 | 6.73595 | 22997 ft | 426 kts | 319° |
| 2026-05-04 15:58 | 44.04865 | 6.71068 | 23517 ft | 429 kts | 318° |
| 2026-05-04 15:58 | 44.07225 | 6.68482 | 24056 ft | 432 kts | 319° |
| 2026-05-04 15:59 | 44.09584 | 6.65894 | 24589 ft | 434 kts | 318° |
| 2026-05-04 15:59 | 44.11960 | 6.63283 | 25112 ft | 436 kts | 317° |
| 2026-05-04 15:59 | 44.14316 | 6.60692 | 25572 ft | 438 kts | 317° |
| 2026-05-04 15:59 | 44.16708 | 6.58052 | 26025 ft | 441 kts | 317° |
| 2026-05-04 16:00 | 44.19117 | 6.55408 | 26467 ft | 443 kts | 319° |
| 2026-05-04 16:00 | 44.21630 | 6.52889 | 26990 ft | 445 kts | 321° |
| 2026-05-04 16:00 | 44.24249 | 6.50567 | 27600 ft | 445 kts | 324° |
| 2026-05-04 16:00 | 44.26879 | 6.48405 | 28178 ft | 444 kts | 325° |
| 2026-05-04 16:01 | 44.29550 | 6.46243 | 28748 ft | 442 kts | 325° |
| 2026-05-04 16:01 | 44.32176 | 6.44125 | 29334 ft | 440 kts | 325° |
| 2026-05-04 16:01 | 44.34819 | 6.41986 | 29900 ft | 438 kts | 325° |
| 2026-05-04 16:01 | 44.37433 | 6.39863 | 30426 ft | 436 kts | 325° |
| 2026-05-04 16:02 | 44.40057 | 6.37731 | 30932 ft | 435 kts | 324° |
| 2026-05-04 16:02 | 44.42633 | 6.35632 | 31418 ft | 433 kts | 324° |
| 2026-05-04 16:02 | 44.47820 | 6.31397 | 32387 ft | 430 kts | 323° |
| 2026-05-04 16:03 | 44.50393 | 6.29294 | 32794 ft | 429 kts | 323° |
| 2026-05-04 16:03 | 44.52960 | 6.27190 | 33128 ft | 430 kts | 323° |
| 2026-05-04 16:03 | 44.55536 | 6.25077 | 33445 ft | 432 kts | 323° |
| 2026-05-04 16:03 | 44.58150 | 6.22932 | 33755 ft | 433 kts | 323° |
| 2026-05-04 16:04 | 44.60731 | 6.20809 | 34015 ft | 434 kts | 323° |
| 2026-05-04 16:04 | 44.68509 | 6.14406 | 34049 ft | 435 kts | 323° |
| 2026-05-04 16:05 | 44.73727 | 6.10098 | 34049 ft | 436 kts | 323° |
| 2026-05-04 16:06 | 44.81568 | 6.03609 | 34046 ft | 436 kts | 323° |
| 2026-05-04 16:07 | 44.92034 | 5.94921 | 34028 ft | 438 kts | 323° |
| 2026-05-04 16:08 | 45.02502 | 5.86190 | 34022 ft | 439 kts | 323° |
| 2026-05-04 16:09 | 45.15428 | 5.74791 | 34023 ft | 439 kts | 321° |
| 2026-05-04 16:10 | 45.25674 | 5.65378 | 34010 ft | 442 kts | 321° |
| 2026-05-04 16:11 | 45.35989 | 5.55875 | 33989 ft | 444 kts | 321° |
| 2026-05-04 16:12 | 45.51800 | 5.42089 | 33729 ft | 453 kts | 330° |
| 2026-05-04 16:13 | 45.57552 | 5.38507 | 33970 ft | 455 kts | 332° |
| 2026-05-04 16:13 | 45.63386 | 5.34939 | 33979 ft | 456 kts | 331° |
| 2026-05-04 16:14 | 45.74977 | 5.27752 | 33991 ft | 456 kts | 331° |
| 2026-05-04 16:16 | 45.89488 | 5.18688 | 33993 ft | 457 kts | 330° |
| 2026-05-04 16:17 | 46.04073 | 5.09522 | 33986 ft | 461 kts | 331° |
| 2026-05-04 16:18 | 46.15796 | 5.02075 | 33980 ft | 462 kts | 331° |
| 2026-05-04 16:19 | 46.30494 | 4.92676 | 33974 ft | 463 kts | 330° |
| 2026-05-04 16:20 | 46.45174 | 4.83226 | 33965 ft | 463 kts | 331° |
| 2026-05-04 16:22 | 46.59844 | 4.73727 | 33975 ft | 463 kts | 331° |
| 2026-05-04 16:23 | 46.77459 | 4.62258 | 33970 ft | 464 kts | 332° |
| 2026-05-04 16:25 | 46.95132 | 4.50816 | 33965 ft | 465 kts | 332° |
| 2026-05-04 16:26 | 47.15827 | 4.37306 | 33954 ft | 466 kts | 332° |
| 2026-05-04 16:27 | 47.21722 | 4.33434 | 33783 ft | 469 kts | 331° |
| 2026-05-04 16:28 | 47.30692 | 4.27519 | 31571 ft | 475 kts | 332° |
| 2026-05-04 16:28 | 47.39727 | 4.21551 | 29387 ft | 477 kts | 332° |
| 2026-05-04 16:29 | 47.51701 | 4.13605 | 27493 ft | 468 kts | 332° |
| 2026-05-04 16:30 | 47.60581 | 4.07681 | 25566 ft | 465 kts | 332° |
| 2026-05-04 16:31 | 47.66403 | 4.03789 | 24569 ft | 453 kts | 332° |
| 2026-05-04 16:31 | 47.74858 | 3.98115 | 23066 ft | 440 kts | 332° |
| 2026-05-04 16:32 | 47.81847 | 3.90213 | 21574 ft | 413 kts | 301° |
| 2026-05-04 16:33 | 47.84949 | 3.83225 | 20598 ft | 404 kts | 299° |
| 2026-05-04 16:33 | 47.87983 | 3.76281 | 19607 ft | 397 kts | 300° |
| 2026-05-04 16:34 | 47.90967 | 3.69530 | 18610 ft | 390 kts | 301° |
| 2026-05-04 16:34 | 47.92459 | 3.66161 | 18110 ft | 387 kts | 301° |
| 2026-05-04 16:35 | 47.96896 | 3.56602 | 17279 ft | 358 kts | 307° |
| 2026-05-04 16:35 | 48.01957 | 3.48598 | 15903 ft | 353 kts | 311° |
| 2026-05-04 16:36 | 48.03689 | 3.45968 | 15448 ft | 351 kts | 312° |
| 2026-05-04 16:36 | 48.07073 | 3.40808 | 14548 ft | 347 kts | 312° |
| 2026-05-04 16:37 | 48.10415 | 3.35695 | 13666 ft | 343 kts | 312° |
| 2026-05-04 16:37 | 48.12076 | 3.33148 | 13229 ft | 341 kts | 312° |
| 2026-05-04 16:37 | 48.15335 | 3.28141 | 12376 ft | 336 kts | 312° |
| 2026-05-04 16:38 | 48.18490 | 3.23292 | 12050 ft | 313 kts | 313° |
| 2026-05-04 16:39 | 48.22835 | 3.16607 | 11586 ft | 292 kts | 313° |
| 2026-05-04 16:39 | 48.25655 | 3.12258 | 10865 ft | 291 kts | 313° |
| 2026-05-04 16:40 | 48.28463 | 3.07921 | 10176 ft | 289 kts | 313° |
| 2026-05-04 16:40 | 48.31269 | 3.03587 | 9941 ft | 293 kts | 313° |
| 2026-05-04 16:41 | 48.34110 | 2.99191 | 9933 ft | 294 kts | 313° |
| 2026-05-04 16:41 | 48.38385 | 2.92546 | 9922 ft | 295 kts | 314° |
| 2026-05-04 16:42 | 48.42652 | 2.85906 | 9924 ft | 296 kts | 314° |
| 2026-05-04 16:43 | 48.45291 | 2.81185 | 9550 ft | 293 kts | 293° |
| 2026-05-04 16:43 | 48.45847 | 2.75171 | 9079 ft | 292 kts | 271° |
| 2026-05-04 16:43 | 48.45896 | 2.72156 | 8782 ft | 290 kts | 271° |
| 2026-05-04 16:44 | 48.46244 | 2.60044 | 7512 ft | 292 kts | 274° |
| 2026-05-04 16:45 | 48.46535 | 2.53934 | 6633 ft | 294 kts | 274° |
| 2026-05-04 16:46 | 48.46958 | 2.44815 | 5441 ft | 290 kts | 274° |
| 2026-05-04 16:46 | 48.47228 | 2.38833 | 4678 ft | 286 kts | 274° |
| 2026-05-04 16:47 | 48.47490 | 2.32906 | 3998 ft | 279 kts | 274° |
| 2026-05-04 16:47 | 48.47730 | 2.27415 | 3971 ft | 247 kts | 274° |
| 2026-05-04 16:48 | 48.48047 | 2.20107 | 3975 ft | 229 kts | 274° |
| 2026-05-04 16:48 | 48.48148 | 2.17749 | 3977 ft | 229 kts | 274° |
| 2026-05-04 16:49 | 48.48351 | 2.12971 | 3978 ft | 229 kts | 274° |
| 2026-05-04 16:49 | 48.48553 | 2.08184 | 3980 ft | 229 kts | 274° |
| 2026-05-04 16:50 | 48.48753 | 2.03397 | 3979 ft | 228 kts | 274° |
| 2026-05-04 16:50 | 48.48955 | 1.98654 | 3978 ft | 228 kts | 278° |
| 2026-05-04 16:51 | 48.50845 | 1.95367 | 3974 ft | 220 kts | 355° |
| 2026-05-04 16:51 | 48.52333 | 1.95627 | 3986 ft | 218 kts | 18° |
| 2026-05-04 16:51 | 48.55231 | 1.96957 | 3980 ft | 217 kts | 16° |
| 2026-05-04 16:52 | 48.58167 | 1.98089 | 3978 ft | 218 kts | 15° |
| 2026-05-04 16:52 | 48.59571 | 1.98700 | 3945 ft | 204 kts | 31° |
| 2026-05-04 16:53 | 48.61285 | 2.01596 | 4005 ft | 173 kts | 58° |
| 2026-05-04 16:53 | 48.63150 | 2.06525 | 3942 ft | 174 kts | 62° |
| 2026-05-04 16:54 | 48.63721 | 2.08136 | 3729 ft | 173 kts | 62° |
| 2026-05-04 16:55 | 48.65705 | 2.13812 | 2919 ft | 172 kts | 62° |
| 2026-05-04 16:55 | 48.66805 | 2.16959 | 2482 ft | 164 kts | 61° |
| 2026-05-04 16:56 | 48.67789 | 2.19764 | 2041 ft | 137 kts | 60° |
| 2026-05-04 16:56 | 48.69156 | 2.23647 | 1517 ft | 137 kts | 60° |
| 2026-05-04 16:57 | 48.69607 | 2.24926 | 1339 ft | 137 kts | 60° |
| 2026-05-04 16:57 | 48.70493 | 2.27485 | 959 ft | 138 kts | 61° |
| 2026-05-04 16:58 | 48.71869 | 2.31337 | 415 ft | 139 kts | 61° |
| 2026-05-04 16:58 | 48.72322 | 2.32614 | 276 ft | 133 kts | 61° |
| 2026-05-04 16:59 | 48.72858 | 2.34122 | 281 ft | 47 kts | 61° |
| 2026-05-04 17:00 | 48.73019 | 2.35213 | 281 ft | 17 kts | 121° |
| 2026-05-04 17:00 | 48.72764 | 2.35470 | 279 ft | 16 kts | 164° |
| 2026-05-04 17:01 | 48.72550 | 2.35561 | 278 ft | 16 kts | 164° |
| 2026-05-04 17:01 | 48.72478 | 2.35820 | 281 ft | 17 kts | 92° |
| 2026-05-04 17:02 | 48.72506 | 2.36220 | 281 ft | 19 kts | 74° |
| 2026-05-04 17:02 | 48.72568 | 2.36559 | 285 ft | 16 kts | 74° |
| 2026-05-04 17:03 | 48.72593 | 2.36639 | 286 ft | 5 kts | 21° |
| 2026-05-04 17:03 | 48.72631 | 2.36631 | 286 ft | 5 kts | 351° |
| 2026-05-04 17:03 | 48.72684 | 2.36654 | 288 ft | 3 kts | 22° |
| 2026-05-04 17:04 | 48.72695 | 2.36660 | 288 ft | 0 kts | 22° |